createdAt,value
2019-02-12T00:02:26.900Z,21.90
2019-02-12T00:04:54.492Z,21.90
2019-02-12T00:07:22.228Z,21.90
2019-02-12T00:09:49.877Z,21.90
2019-02-12T00:12:17.548Z,21.90
2019-02-12T00:14:45.138Z,21.90
2019-02-12T00:17:15.607Z,21.90
2019-02-12T00:19:46.508Z,21.90
2019-02-12T00:22:14.098Z,21.90
2019-02-12T00:24:41.831Z,21.90
2019-02-12T00:27:09.507Z,21.90
2019-02-12T00:29:37.243Z,21.90
2019-02-12T00:32:04.922Z,21.90
2019-02-12T00:34:32.648Z,21.90
2019-02-12T00:37:00.311Z,21.90
2019-02-12T00:39:27.882Z,21.90
2019-02-12T00:41:55.489Z,21.90
2019-02-12T00:44:23.132Z,21.90
2019-02-12T00:46:50.741Z,21.90
2019-02-12T00:49:18.437Z,21.90
2019-02-12T00:51:46.138Z,21.90
2019-02-12T00:54:13.858Z,21.90
2019-02-12T00:56:41.521Z,21.90
2019-02-12T00:59:09.132Z,21.90
2019-02-12T01:01:36.734Z,21.90
2019-02-12T01:04:04.420Z,21.90
2019-02-12T01:06:32.048Z,21.90
2019-02-12T01:08:59.631Z,21.90
2019-02-12T01:11:27.287Z,21.90
2019-02-12T01:13:55.001Z,21.90
2019-02-12T01:16:22.640Z,21.80
2019-02-12T01:18:50.225Z,21.90
2019-02-12T01:21:25.891Z,21.90
2019-02-12T01:23:47.224Z,21.90
2019-02-12T01:26:14.817Z,21.80
2019-02-12T01:28:42.481Z,21.80
2019-02-12T01:31:10.093Z,21.80
2019-02-12T01:33:37.678Z,21.80
2019-02-12T01:36:05.311Z,21.80
2019-02-12T01:38:33.051Z,21.80
2019-02-12T01:41:00.719Z,21.80
2019-02-12T01:43:28.304Z,21.80
2019-02-12T01:45:55.949Z,21.80
2019-02-12T01:48:23.549Z,21.80
2019-02-12T01:50:51.135Z,21.80
2019-02-12T01:53:18.779Z,21.80
2019-02-12T01:55:46.419Z,21.80
2019-02-12T01:58:14.072Z,21.80
2019-02-12T02:00:41.687Z,21.80
2019-02-12T02:03:09.429Z,21.80
2019-02-12T02:05:37.032Z,21.80
2019-02-12T02:08:04.631Z,21.80
2019-02-12T02:10:32.277Z,21.80
2019-02-12T02:12:59.886Z,21.80
2019-02-12T02:15:27.627Z,21.80
2019-02-12T02:17:55.301Z,21.80
2019-02-12T02:20:22.967Z,21.80
2019-02-12T02:22:50.566Z,21.80
2019-02-12T02:25:18.211Z,21.80
2019-02-12T02:27:45.817Z,21.80
2019-02-12T02:30:14.410Z,21.80
2019-02-12T02:32:42.043Z,21.80
2019-02-12T02:35:09.663Z,21.80
2019-02-12T02:37:37.316Z,21.80
2019-02-12T02:40:06.055Z,21.80
2019-02-12T02:42:33.733Z,21.80
2019-02-12T02:45:01.348Z,21.80
2019-02-12T02:47:29.095Z,21.80
2019-02-12T02:49:56.750Z,21.80
2019-02-12T02:52:24.406Z,21.80
2019-02-12T02:54:52.137Z,21.80
2019-02-12T02:57:19.802Z,21.80
2019-02-12T02:59:47.481Z,21.80
2019-02-12T03:02:15.089Z,21.80
2019-02-12T03:04:42.796Z,21.80
2019-02-12T03:07:10.386Z,21.80
2019-02-12T03:09:37.972Z,21.80
2019-02-12T03:12:05.587Z,21.80
2019-02-12T03:14:33.277Z,21.70
2019-02-12T03:17:00.943Z,21.80
2019-02-12T03:19:28.691Z,21.70
2019-02-12T03:22:03.426Z,21.80
2019-02-12T03:24:25.675Z,21.70
2019-02-12T03:26:53.346Z,21.70
2019-02-12T03:29:21.099Z,21.70
2019-02-12T03:31:48.768Z,21.80
2019-02-12T03:34:16.578Z,21.70
2019-02-12T03:36:44.293Z,21.70
2019-02-12T03:39:12.046Z,21.80
2019-02-12T03:41:40.155Z,21.70
2019-02-12T03:44:07.831Z,21.70
2019-02-12T03:46:35.490Z,21.70
2019-02-12T03:49:03.123Z,21.70
2019-02-12T03:51:31.034Z,21.70
2019-02-12T03:53:58.694Z,21.70
2019-02-12T03:56:26.410Z,21.70
2019-02-12T03:58:54.093Z,21.70
2019-02-12T04:01:21.883Z,21.70
2019-02-12T04:03:49.512Z,21.70
2019-02-12T04:06:17.197Z,21.70
2019-02-12T04:08:44.857Z,21.70
2019-02-12T04:11:12.474Z,21.70
2019-02-12T04:13:40.142Z,21.70
2019-02-12T04:16:07.789Z,21.70
2019-02-12T04:18:35.463Z,21.70
2019-02-12T04:21:03.121Z,21.70
2019-02-12T04:23:30.771Z,21.70
2019-02-12T04:25:58.418Z,21.70
2019-02-12T04:28:26.000Z,21.70
2019-02-12T04:30:53.720Z,21.70
2019-02-12T04:33:21.356Z,21.70
2019-02-12T04:35:49.029Z,21.70
2019-02-12T04:38:16.744Z,21.70
2019-02-12T04:40:44.342Z,21.70
2019-02-12T04:43:12.036Z,21.70
2019-02-12T04:45:39.746Z,21.70
2019-02-12T04:48:07.418Z,21.70
2019-02-12T04:50:35.029Z,21.70
2019-02-12T04:53:02.714Z,21.70
2019-02-12T04:55:30.388Z,21.70
2019-02-12T04:57:58.064Z,21.70
2019-02-12T05:00:25.668Z,21.70
2019-02-12T05:02:53.357Z,21.70
2019-02-12T05:05:21.218Z,21.70
2019-02-12T05:07:48.843Z,21.70
2019-02-12T05:10:20.864Z,21.70
2019-02-12T05:12:48.516Z,21.70
2019-02-12T05:15:16.120Z,21.70
2019-02-12T05:17:43.773Z,21.70
2019-02-12T05:20:13.083Z,21.70
2019-02-12T05:22:43.675Z,21.70
2019-02-12T05:25:10.082Z,21.70
2019-02-12T05:27:37.678Z,21.70
2019-02-12T05:30:06.974Z,21.70
2019-02-12T05:32:34.657Z,21.60
2019-02-12T05:35:02.312Z,21.70
2019-02-12T05:37:29.977Z,21.70
2019-02-12T05:39:57.594Z,21.70
2019-02-12T05:42:25.348Z,21.70
2019-02-12T05:44:52.946Z,21.70
2019-02-12T05:47:20.594Z,21.70
2019-02-12T05:49:48.235Z,21.70
2019-02-12T05:52:15.911Z,21.70
2019-02-12T05:54:43.594Z,21.70
2019-02-12T05:57:11.211Z,21.70
2019-02-12T05:59:38.878Z,21.70
2019-02-12T06:02:06.525Z,21.70
2019-02-12T06:04:34.186Z,21.70
2019-02-12T06:07:01.886Z,21.70
2019-02-12T06:09:29.570Z,21.70
2019-02-12T06:11:57.180Z,21.70
2019-02-12T06:14:24.832Z,21.70
2019-02-12T06:16:52.433Z,21.70
2019-02-12T06:19:20.039Z,21.70
2019-02-12T06:21:47.756Z,21.70
2019-02-12T06:24:15.380Z,21.70
2019-02-12T06:26:42.985Z,21.80
2019-02-12T06:29:10.773Z,21.80
2019-02-12T06:31:38.383Z,21.80
2019-02-12T06:34:05.988Z,21.80
2019-02-12T06:36:33.663Z,21.90
2019-02-12T06:39:01.307Z,21.90
2019-02-12T06:41:28.888Z,22.00
2019-02-12T06:43:56.571Z,22.00
2019-02-12T06:46:24.249Z,22.00
2019-02-12T06:48:51.927Z,22.00
2019-02-12T06:51:19.634Z,22.00
2019-02-12T06:53:50.006Z,22.00
2019-02-12T06:56:17.696Z,22.00
2019-02-12T06:58:45.450Z,22.10
2019-02-12T07:01:13.124Z,22.10
2019-02-12T07:03:45.347Z,22.10
2019-02-12T07:06:26.885Z,22.10
2019-02-12T07:08:56.187Z,22.10
2019-02-12T07:11:28.070Z,22.10
2019-02-12T07:14:00.400Z,22.10
2019-02-12T07:16:41.569Z,22.10
2019-02-12T07:19:10.964Z,22.10
2019-02-12T07:21:43.175Z,22.10
2019-02-12T07:24:27.908Z,22.10
2019-02-12T07:26:57.254Z,22.10
2019-02-12T07:29:38.479Z,22.00
2019-02-12T07:32:13.744Z,22.00
2019-02-12T07:34:43.080Z,22.00
2019-02-12T07:37:27.506Z,22.00
2019-02-12T07:39:59.593Z,21.90
2019-02-12T07:42:41.015Z,21.90
2019-02-12T07:45:26.823Z,21.90
2019-02-12T07:48:14.288Z,21.90
2019-02-12T07:50:46.521Z,21.90
2019-02-12T07:53:30.603Z,21.80
2019-02-12T07:55:52.685Z,21.80
2019-02-12T07:58:40.207Z,21.80
2019-02-12T08:01:15.549Z,21.80
2019-02-12T08:04:01.192Z,21.80
2019-02-12T08:06:30.489Z,21.80
2019-02-12T08:08:59.755Z,21.80
2019-02-12T08:11:34.924Z,21.80
2019-02-12T08:14:20.602Z,21.80
2019-02-12T08:16:49.959Z,21.80
2019-02-12T08:19:37.320Z,21.80
2019-02-12T08:22:06.669Z,21.80
2019-02-12T08:24:41.769Z,21.80
2019-02-12T08:27:11.151Z,21.80
2019-02-12T08:29:52.628Z,21.80
2019-02-12T08:32:26.099Z,21.80
2019-02-12T08:34:58.141Z,21.80
2019-02-12T08:37:27.475Z,21.80
2019-02-12T08:39:56.942Z,21.40
2019-02-12T08:42:26.294Z,21.80
2019-02-12T08:45:07.509Z,21.80
2019-02-12T08:47:36.839Z,21.80
2019-02-12T08:50:06.160Z,21.80
2019-02-12T08:52:41.562Z,21.80
2019-02-12T08:55:16.887Z,21.80
2019-02-12T08:57:46.302Z,21.80
2019-02-12T09:00:18.374Z,21.80
2019-02-12T09:02:47.713Z,21.80
2019-02-12T09:05:17.242Z,21.80
2019-02-12T09:07:46.493Z,21.80
2019-02-12T09:10:32.215Z,21.80
2019-02-12T09:13:07.525Z,21.80
2019-02-12T09:15:42.663Z,21.80
2019-02-12T09:18:14.752Z,21.80
2019-02-12T09:20:47.033Z,21.80
2019-02-12T09:23:19.367Z,21.80
2019-02-12T09:25:51.482Z,21.80
2019-02-12T09:28:20.835Z,21.80
2019-02-12T09:31:06.813Z,21.80
2019-02-12T09:33:36.145Z,21.80
2019-02-12T09:36:08.444Z,21.80
2019-02-12T09:38:37.772Z,21.80
2019-02-12T09:41:06.995Z,21.80
2019-02-12T09:43:45.381Z,21.80
2019-02-12T09:46:32.675Z,21.80
2019-02-12T09:49:04.978Z,21.70
2019-02-12T09:51:37.059Z,21.80
2019-02-12T09:54:15.367Z,21.80
2019-02-12T09:56:47.317Z,22.20
2019-02-12T09:59:25.369Z,21.80
2019-02-12T10:01:54.738Z,21.70
2019-02-12T10:04:24.087Z,21.80
2019-02-12T10:07:10.183Z,21.80
2019-02-12T10:09:39.564Z,21.70
2019-02-12T10:12:14.972Z,21.70
2019-02-12T10:14:50.005Z,21.80
2019-02-12T10:17:19.395Z,21.80
2019-02-12T10:19:48.691Z,21.70
2019-02-12T10:22:34.304Z,21.70
2019-02-12T10:25:03.955Z,21.70
2019-02-12T10:27:39.213Z,21.80
2019-02-12T10:30:21.543Z,21.70
2019-02-12T10:32:49.263Z,21.70
2019-02-12T10:35:17.051Z,21.80
2019-02-12T10:37:44.770Z,21.80
2019-02-12T10:40:12.577Z,21.70
2019-02-12T10:42:40.292Z,21.80
2019-02-12T10:45:08.325Z,21.70
2019-02-12T10:47:36.040Z,21.70
2019-02-12T10:50:04.288Z,21.70
2019-02-12T10:52:31.963Z,21.70
2019-02-12T10:54:59.636Z,21.80
2019-02-12T10:57:27.453Z,21.70
2019-02-12T10:59:55.213Z,21.80
2019-02-12T11:02:22.883Z,21.70
2019-02-12T11:04:50.573Z,21.80
2019-02-12T11:07:18.397Z,21.70
2019-02-12T11:09:46.163Z,21.70
2019-02-12T11:12:13.799Z,21.80
2019-02-12T11:14:41.583Z,21.70
2019-02-12T11:17:09.258Z,21.70
2019-02-12T11:19:36.991Z,21.70
2019-02-12T11:22:04.774Z,21.70
2019-02-12T11:24:35.568Z,21.80
2019-02-12T11:27:03.509Z,21.80
2019-02-12T11:29:31.208Z,21.80
2019-02-12T11:32:00.480Z,21.70
2019-02-12T11:34:28.199Z,21.80
2019-02-12T11:36:55.905Z,21.80
2019-02-12T11:39:23.523Z,21.80
2019-02-12T11:41:51.187Z,21.80
2019-02-12T11:44:18.942Z,21.70
2019-02-12T11:46:46.579Z,21.80
2019-02-12T11:49:14.376Z,21.80
2019-02-12T11:51:42.069Z,21.80
2019-02-12T11:54:09.841Z,21.70
2019-02-12T11:56:37.483Z,21.80
2019-02-12T11:59:05.193Z,21.80
2019-02-12T12:01:32.985Z,21.80
2019-02-12T12:04:00.679Z,21.70
2019-02-12T12:06:28.438Z,21.70
2019-02-12T12:08:56.168Z,21.80
2019-02-12T12:11:23.939Z,21.80
2019-02-12T12:13:51.590Z,21.80
2019-02-12T12:16:19.365Z,21.80
2019-02-12T12:18:47.059Z,21.80
2019-02-12T12:21:14.679Z,21.80
2019-02-12T12:23:42.360Z,21.80
2019-02-12T12:26:10.150Z,21.80
2019-02-12T12:28:37.747Z,21.80
2019-02-12T12:31:05.492Z,21.80
2019-02-12T12:33:33.174Z,21.80
2019-02-12T12:36:00.825Z,21.80
2019-02-12T12:38:28.562Z,21.80
2019-02-12T12:40:56.238Z,21.80
2019-02-12T12:43:23.986Z,21.70
2019-02-12T12:45:51.745Z,21.80
2019-02-12T12:48:19.501Z,21.70
2019-02-12T12:50:47.147Z,21.80
2019-02-12T12:53:14.849Z,21.80
2019-02-12T12:55:42.501Z,21.80
2019-02-12T12:58:10.108Z,21.70
2019-02-12T13:00:37.938Z,21.70
2019-02-12T13:03:05.615Z,21.80
2019-02-12T13:05:33.242Z,21.80
2019-02-12T13:08:00.955Z,21.80
2019-02-12T13:10:28.652Z,21.80
2019-02-12T13:12:56.324Z,21.80
2019-02-12T13:15:24.023Z,21.70
2019-02-12T13:17:51.720Z,21.80
2019-02-12T13:20:19.714Z,21.80
2019-02-12T13:22:47.408Z,21.80
2019-02-12T13:25:15.078Z,21.80
2019-02-12T13:27:42.737Z,21.80
2019-02-12T13:30:19.532Z,21.70
2019-02-12T13:32:47.221Z,21.70
2019-02-12T13:35:14.894Z,21.70
2019-02-12T13:37:42.556Z,21.80
2019-02-12T13:40:10.957Z,21.70
2019-02-12T13:42:38.605Z,21.70
2019-02-12T13:45:10.237Z,21.80
2019-02-12T13:47:37.904Z,21.80
2019-02-12T13:50:06.443Z,21.80
2019-02-12T13:52:34.142Z,21.80
2019-02-12T13:55:03.172Z,21.80
2019-02-12T13:57:30.857Z,21.80
2019-02-12T14:00:01.282Z,21.80
2019-02-12T14:02:28.867Z,21.80
2019-02-12T14:04:56.507Z,21.80
2019-02-12T14:07:24.167Z,21.80
2019-02-12T14:09:51.826Z,21.80
2019-02-12T14:12:19.478Z,21.80
2019-02-12T14:14:47.112Z,21.70
2019-02-12T14:17:14.820Z,21.80
2019-02-12T14:19:42.414Z,21.80
2019-02-12T14:22:10.067Z,21.80
2019-02-12T14:24:37.865Z,21.80
2019-02-12T14:27:05.527Z,21.80
2019-02-12T14:29:33.166Z,21.80
2019-02-12T14:32:00.805Z,21.80
2019-02-12T14:34:28.407Z,21.70
2019-02-12T14:36:57.776Z,21.80
2019-02-12T14:39:25.616Z,21.80
2019-02-12T14:41:53.281Z,21.80
2019-02-12T14:44:20.939Z,21.80
2019-02-12T14:46:48.538Z,21.80
2019-02-12T14:49:16.139Z,21.80
2019-02-12T14:51:43.837Z,21.80
2019-02-12T14:54:11.528Z,21.80
2019-02-12T14:56:39.139Z,21.70
2019-02-12T14:59:06.802Z,21.70
2019-02-12T15:01:34.499Z,21.70
2019-02-12T15:04:02.171Z,21.70
2019-02-12T15:06:30.016Z,21.80
2019-02-12T15:08:57.593Z,21.70
2019-02-12T15:11:25.182Z,21.70
2019-02-12T15:13:52.884Z,21.70
2019-02-12T15:16:20.592Z,21.70
2019-02-12T15:18:48.291Z,21.70
2019-02-12T15:21:15.893Z,21.70
2019-02-12T15:23:43.465Z,21.70
2019-02-12T15:26:11.139Z,21.70
2019-02-12T15:28:38.779Z,21.70
2019-02-12T15:31:06.466Z,21.70
2019-02-12T15:33:34.127Z,21.70
2019-02-12T15:36:01.807Z,21.70
2019-02-12T15:38:29.517Z,21.70
2019-02-12T15:40:57.208Z,21.70
2019-02-12T15:43:24.870Z,21.70
2019-02-12T15:45:53.481Z,21.70
2019-02-12T15:48:21.204Z,21.70
2019-02-12T15:50:48.814Z,21.70
2019-02-12T15:53:16.398Z,21.70
2019-02-12T15:55:51.172Z,21.70
2019-02-12T15:58:13.362Z,21.70
2019-02-12T16:00:41.532Z,21.70
2019-02-12T16:03:10.327Z,21.70
2019-02-12T16:05:37.943Z,21.70
2019-02-12T16:08:07.234Z,21.70
2019-02-12T16:10:34.901Z,21.70
2019-02-12T16:13:02.511Z,21.60
2019-02-12T16:15:30.095Z,21.70
2019-02-12T16:17:59.876Z,21.70
2019-02-12T16:20:27.059Z,21.70
2019-02-12T16:22:54.769Z,21.70
2019-02-12T16:25:22.339Z,21.70
2019-02-12T16:27:50.361Z,21.60
2019-02-12T16:30:18.974Z,21.70
2019-02-12T16:32:46.639Z,21.60
2019-02-12T16:35:15.054Z,21.70
2019-02-12T16:37:42.699Z,21.60
2019-02-12T16:40:11.272Z,21.70
2019-02-12T16:42:38.860Z,21.60
2019-02-12T16:45:08.155Z,21.60
2019-02-12T16:47:35.805Z,21.70
2019-02-12T16:50:04.062Z,21.60
2019-02-12T16:52:31.760Z,21.70
2019-02-12T16:54:59.368Z,21.60
2019-02-12T16:57:27.029Z,21.60
2019-02-12T16:59:54.735Z,21.70
2019-02-12T17:02:22.407Z,21.70
2019-02-12T17:04:50.020Z,21.80
2019-02-12T17:07:17.713Z,21.80
2019-02-12T17:09:52.110Z,22.20
2019-02-12T17:12:14.825Z,21.90
2019-02-12T17:14:42.463Z,21.90
2019-02-12T17:17:10.132Z,21.90
2019-02-12T17:19:37.788Z,21.90
2019-02-12T17:22:05.505Z,21.90
2019-02-12T17:24:33.635Z,22.00
2019-02-12T17:27:01.405Z,22.00
2019-02-12T17:29:30.701Z,22.00
2019-02-12T17:31:58.464Z,22.00
2019-02-12T17:34:26.194Z,22.00
2019-02-12T17:36:53.804Z,21.90
2019-02-12T17:39:21.396Z,21.90
2019-02-12T17:41:49.044Z,21.90
2019-02-12T17:44:16.758Z,21.90
2019-02-12T17:46:44.432Z,21.90
2019-02-12T17:49:12.115Z,21.80
2019-02-12T17:51:39.759Z,21.80
2019-02-12T17:54:07.360Z,21.80
2019-02-12T17:56:35.076Z,21.80
2019-02-12T17:59:04.772Z,21.90
2019-02-12T18:01:32.430Z,21.80
2019-02-12T18:04:02.815Z,21.80
2019-02-12T18:06:30.503Z,21.90
2019-02-12T18:08:58.138Z,21.80
2019-02-12T18:11:25.843Z,21.80
2019-02-12T18:13:53.474Z,21.80
2019-02-12T18:16:21.211Z,21.80
2019-02-12T18:18:48.814Z,21.80
2019-02-12T18:21:16.452Z,21.80
2019-02-12T18:23:44.174Z,21.80
2019-02-12T18:26:11.763Z,21.80
2019-02-12T18:28:39.404Z,21.80
2019-02-12T18:31:07.132Z,21.80
2019-02-12T18:33:34.806Z,21.80
2019-02-12T18:36:02.386Z,21.80
2019-02-12T18:38:30.054Z,21.80
2019-02-12T18:40:57.735Z,21.80
2019-02-12T18:43:25.332Z,21.80
2019-02-12T18:45:53.072Z,21.80
2019-02-12T18:48:20.704Z,21.70
2019-02-12T18:50:48.300Z,21.80
2019-02-12T18:53:15.968Z,21.80
2019-02-12T18:55:43.715Z,21.80
2019-02-12T18:58:11.398Z,21.70
2019-02-12T19:00:39.081Z,21.80
2019-02-12T19:03:06.735Z,21.80
2019-02-12T19:05:34.390Z,21.70
2019-02-12T19:08:02.491Z,21.80
2019-02-12T19:10:30.230Z,21.80
2019-02-12T19:12:57.817Z,21.70
2019-02-12T19:15:25.513Z,21.70
2019-02-12T19:17:54.857Z,21.70
2019-02-12T19:20:22.441Z,21.70
2019-02-12T19:22:50.062Z,21.80
2019-02-12T19:25:17.767Z,21.80
2019-02-12T19:27:45.434Z,21.80
2019-02-12T19:30:16.087Z,21.80
2019-02-12T19:32:43.631Z,21.80
2019-02-12T19:35:11.338Z,21.80
2019-02-12T19:37:39.085Z,21.80
2019-02-12T19:40:07.955Z,21.80
2019-02-12T19:42:35.648Z,21.80
2019-02-12T19:45:06.641Z,21.80
2019-02-12T19:47:34.353Z,21.80
2019-02-12T19:50:02.017Z,21.80
2019-02-12T19:52:29.768Z,21.80
2019-02-12T19:54:57.472Z,21.80
2019-02-12T19:57:25.157Z,21.80
2019-02-12T19:59:52.808Z,21.80
2019-02-12T20:02:20.403Z,21.80
2019-02-12T20:04:48.060Z,21.80
2019-02-12T20:07:15.746Z,21.80
2019-02-12T20:09:43.374Z,21.80
2019-02-12T20:12:11.054Z,21.80
2019-02-12T20:14:41.833Z,21.80
2019-02-12T20:17:09.497Z,21.80
2019-02-12T20:19:37.224Z,21.80
2019-02-12T20:22:04.892Z,21.80
2019-02-12T20:24:32.553Z,21.80
2019-02-12T20:27:06.422Z,21.80
2019-02-12T20:29:29.477Z,21.80
2019-02-12T20:31:57.197Z,21.80
2019-02-12T20:34:24.849Z,21.80
2019-02-12T20:36:52.501Z,21.80
2019-02-12T20:39:20.194Z,21.80
2019-02-12T20:41:47.858Z,21.80
2019-02-12T20:44:15.806Z,21.80
2019-02-12T20:46:43.490Z,21.80
2019-02-12T20:49:11.215Z,21.80
2019-02-12T20:51:38.843Z,21.80
2019-02-12T20:54:08.069Z,21.80
2019-02-12T20:56:35.741Z,21.80
2019-02-12T20:59:03.427Z,21.80
2019-02-12T21:01:31.022Z,21.80
2019-02-12T21:03:58.726Z,21.80
2019-02-12T21:06:26.439Z,21.80
2019-02-12T21:08:54.151Z,21.80
2019-02-12T21:11:21.757Z,21.80
2019-02-12T21:13:49.442Z,21.80
2019-02-12T21:16:17.182Z,21.80
2019-02-12T21:18:44.893Z,21.80
2019-02-12T21:21:13.036Z,21.80
2019-02-12T21:23:41.064Z,21.80
2019-02-12T21:26:09.175Z,21.80
2019-02-12T21:28:39.594Z,21.70
2019-02-12T21:31:07.279Z,21.80
2019-02-12T21:33:35.258Z,21.80
2019-02-12T21:36:03.457Z,21.70
2019-02-12T21:38:31.406Z,21.70
2019-02-12T21:41:00.907Z,21.70
2019-02-12T21:43:30.995Z,21.70
2019-02-12T21:45:58.761Z,21.70
2019-02-12T21:48:26.432Z,21.70
2019-02-12T21:50:54.103Z,21.70
2019-02-12T21:53:21.713Z,21.70
2019-02-12T21:55:49.406Z,21.70
2019-02-12T21:58:20.206Z,21.70
2019-02-12T22:00:47.832Z,21.70
2019-02-12T22:03:15.508Z,21.70
2019-02-12T22:05:43.160Z,21.70
2019-02-12T22:08:11.101Z,21.70
2019-02-12T22:10:46.231Z,21.70
2019-02-12T22:13:08.256Z,21.70
2019-02-12T22:15:36.041Z,21.70
2019-02-12T22:18:03.683Z,21.70
2019-02-12T22:20:31.350Z,21.70
2019-02-12T22:22:58.971Z,21.70
2019-02-12T22:25:26.745Z,21.70
2019-02-12T22:27:54.522Z,21.70
2019-02-12T22:30:22.890Z,21.80
2019-02-12T22:32:50.741Z,21.80
2019-02-12T22:35:18.397Z,21.70
2019-02-12T22:37:46.669Z,21.70
2019-02-12T22:40:15.086Z,21.80
2019-02-12T22:42:42.816Z,21.70
2019-02-12T22:45:17.273Z,21.70
2019-02-12T22:47:44.895Z,21.70
2019-02-12T22:50:12.861Z,21.70
2019-02-12T22:52:40.571Z,21.70
2019-02-12T22:55:08.922Z,21.70
2019-02-12T22:57:36.600Z,21.70
2019-02-12T23:00:08.711Z,21.80
2019-02-12T23:02:36.373Z,21.50
2019-02-12T23:05:05.078Z,21.70
2019-02-12T23:07:32.769Z,21.70
2019-02-12T23:10:00.415Z,21.70
2019-02-12T23:12:28.173Z,21.70
2019-02-12T23:14:55.900Z,21.70
2019-02-12T23:17:23.520Z,21.70
2019-02-12T23:19:51.319Z,21.70
2019-02-12T23:22:18.919Z,21.70
2019-02-12T23:24:46.773Z,21.70
2019-02-12T23:27:14.410Z,21.70
2019-02-12T23:29:42.091Z,21.70
2019-02-12T23:32:09.759Z,21.70
2019-02-12T23:34:37.395Z,21.70
2019-02-12T23:37:05.103Z,21.70
2019-02-12T23:39:33.027Z,21.70
2019-02-12T23:42:00.738Z,21.70
2019-02-12T23:44:28.593Z,21.70
2019-02-12T23:46:56.241Z,21.70
2019-02-12T23:49:23.911Z,21.70
2019-02-12T23:51:51.500Z,21.70
2019-02-12T23:54:19.134Z,21.70
2019-02-12T23:56:46.857Z,21.70
2019-02-12T23:59:14.540Z,21.70
